BVL7440 LIBD-LBWN
Flight info
| Callsign | BVL7440 |
|---|---|
| Flight time | 1h 17m |
| Altitude | 37000 |
| Route | DOLON DCT PAPIZ DCT BONZI DCT SIN DCT VELBA DCT DICXA |
| Aircraft | A320/M-SDE3FGHIRWY/LB1 |
Departure
| Time | 2026-04-22 15:38 |
|---|---|
| Airport | Bari Karol Wojtyła International Airport (LIBD) |
Arrival
| Time | 2026-04-22 16:55 |
|---|---|
| Airport | Varna Airport (LBWN) |
| Time | Latitude | Longitude | Altitude | Speed | Heading |
|---|---|---|---|---|---|
| 2026-04-22 15:26 | 41.13758 | 16.77029 | 132 ft | 0 kts | 195° |
| 2026-04-22 15:31 | 41.13765 | 16.77031 | 132 ft | 2 kts | 195° |
| 2026-04-22 15:31 | 41.13779 | 16.77037 | 132 ft | 2 kts | 195° |
| 2026-04-22 15:31 | 41.13794 | 16.77042 | 131 ft | 2 kts | 195° |
| 2026-04-22 15:31 | 41.13808 | 16.77049 | 131 ft | 2 kts | 216° |
| 2026-04-22 15:32 | 41.13819 | 16.77063 | 130 ft | 2 kts | 234° |
| 2026-04-22 15:32 | 41.13824 | 16.77074 | 130 ft | 0 kts | 248° |
| 2026-04-22 15:32 | 41.13826 | 16.77083 | 130 ft | 0 kts | 251° |
| 2026-04-22 15:34 | 41.13823 | 16.77070 | 130 ft | 3 kts | 251° |
| 2026-04-22 15:35 | 41.13815 | 16.77038 | 131 ft | 7 kts | 250° |
| 2026-04-22 15:35 | 41.13781 | 16.76922 | 135 ft | 12 kts | 249° |
| 2026-04-22 15:35 | 41.13779 | 16.76812 | 137 ft | 12 kts | 296° |
| 2026-04-22 15:35 | 41.13851 | 16.76765 | 137 ft | 13 kts | 21° |
| 2026-04-22 15:36 | 41.13900 | 16.76883 | 134 ft | 16 kts | 71° |
| 2026-04-22 15:36 | 41.13944 | 16.77041 | 129 ft | 20 kts | 69° |
| 2026-04-22 15:36 | 41.13997 | 16.77227 | 125 ft | 22 kts | 69° |
| 2026-04-22 15:36 | 41.14054 | 16.77372 | 121 ft | 15 kts | 30° |
| 2026-04-22 15:37 | 41.14162 | 16.77416 | 120 ft | 16 kts | 359° |
| 2026-04-22 15:37 | 41.14207 | 16.77322 | 121 ft | 13 kts | 250° |
| 2026-04-22 15:37 | 41.14162 | 16.77157 | 124 ft | 39 kts | 250° |
| 2026-04-22 15:37 | 41.13982 | 16.76520 | 140 ft | 106 kts | 250° |
| 2026-04-22 15:38 | 41.13653 | 16.75349 | 168 ft | 161 kts | 250° |
| 2026-04-22 15:38 | 41.12834 | 16.72399 | 1404 ft | 170 kts | 252° |
| 2026-04-22 15:38 | 41.12411 | 16.70935 | 2094 ft | 173 kts | 254° |
| 2026-04-22 15:39 | 41.11978 | 16.69394 | 2516 ft | 188 kts | 255° |
| 2026-04-22 15:39 | 41.11504 | 16.67703 | 2937 ft | 205 kts | 254° |
| 2026-04-22 15:39 | 41.10983 | 16.65870 | 3332 ft | 225 kts | 254° |
| 2026-04-22 15:39 | 41.10410 | 16.63870 | 3945 ft | 236 kts | 253° |
| 2026-04-22 15:40 | 41.09825 | 16.61854 | 4821 ft | 236 kts | 254° |
| 2026-04-22 15:40 | 41.09243 | 16.59834 | 5656 ft | 238 kts | 256° |
| 2026-04-22 15:40 | 41.09030 | 16.57729 | 6461 ft | 229 kts | 289° |
| 2026-04-22 15:40 | 41.09756 | 16.55968 | 7344 ft | 217 kts | 319° |
| 2026-04-22 15:41 | 41.11035 | 16.54983 | 8122 ft | 218 kts | 346° |
| 2026-04-22 15:41 | 41.12550 | 16.54970 | 8832 ft | 228 kts | 13° |
| 2026-04-22 15:41 | 41.14038 | 16.55735 | 9532 ft | 236 kts | 18° |
| 2026-04-22 15:41 | 41.15578 | 16.56571 | 10194 ft | 243 kts | 18° |
| 2026-04-22 15:42 | 41.17162 | 16.57427 | 10919 ft | 248 kts | 17° |
| 2026-04-22 15:42 | 41.18773 | 16.58301 | 11639 ft | 253 kts | 15° |
| 2026-04-22 15:42 | 41.20398 | 16.59183 | 12327 ft | 257 kts | 15° |
| 2026-04-22 15:42 | 41.22051 | 16.60091 | 13022 ft | 262 kts | 17° |
| 2026-04-22 15:43 | 41.23556 | 16.61580 | 13658 ft | 284 kts | 49° |
| 2026-04-22 15:43 | 41.24343 | 16.64048 | 14227 ft | 304 kts | 76° |
| 2026-04-22 15:43 | 41.24606 | 16.66930 | 14615 ft | 321 kts | 83° |
| 2026-04-22 15:43 | 41.24755 | 16.69957 | 14943 ft | 338 kts | 83° |
| 2026-04-22 15:44 | 41.24945 | 16.73137 | 15259 ft | 355 kts | 81° |
| 2026-04-22 15:44 | 41.25199 | 16.76473 | 15573 ft | 372 kts | 81° |
| 2026-04-22 15:44 | 41.25320 | 16.79971 | 15889 ft | 393 kts | 90° |
| 2026-04-22 15:44 | 41.24971 | 16.83648 | 16215 ft | 411 kts | 101° |
| 2026-04-22 15:45 | 41.24258 | 16.87400 | 16601 ft | 423 kts | 105° |
| 2026-04-22 15:45 | 41.23455 | 16.91194 | 17182 ft | 429 kts | 105° |
| 2026-04-22 15:45 | 41.22649 | 16.94999 | 17783 ft | 434 kts | 105° |
| 2026-04-22 15:45 | 41.21845 | 16.98855 | 18362 ft | 439 kts | 104° |
| 2026-04-22 15:46 | 41.21043 | 17.02785 | 18937 ft | 444 kts | 104° |
| 2026-04-22 15:46 | 41.20246 | 17.06757 | 19472 ft | 449 kts | 104° |
| 2026-04-22 15:46 | 41.19442 | 17.10749 | 19976 ft | 455 kts | 104° |
| 2026-04-22 15:46 | 41.18390 | 17.14744 | 20476 ft | 460 kts | 116° |
| 2026-04-22 15:47 | 41.16787 | 17.18374 | 20980 ft | 462 kts | 129° |
| 2026-04-22 15:47 | 41.14703 | 17.21671 | 21521 ft | 463 kts | 135° |
| 2026-04-22 15:47 | 41.12548 | 17.24783 | 22021 ft | 467 kts | 136° |
| 2026-04-22 15:47 | 41.10337 | 17.27945 | 22528 ft | 471 kts | 136° |
| 2026-04-22 15:48 | 41.08110 | 17.31158 | 23010 ft | 476 kts | 136° |
| 2026-04-22 15:48 | 41.05856 | 17.34446 | 23493 ft | 480 kts | 135° |
| 2026-04-22 15:48 | 41.03623 | 17.37732 | 23955 ft | 485 kts | 135° |
| 2026-04-22 15:48 | 41.01374 | 17.41055 | 24462 ft | 487 kts | 135° |
| 2026-04-22 15:49 | 40.99120 | 17.44387 | 25063 ft | 487 kts | 135° |
| 2026-04-22 15:49 | 40.96870 | 17.47707 | 25706 ft | 486 kts | 135° |
| 2026-04-22 15:49 | 40.94613 | 17.51029 | 26154 ft | 489 kts | 135° |
| 2026-04-22 15:49 | 40.92338 | 17.54380 | 26522 ft | 494 kts | 135° |
| 2026-04-22 15:50 | 40.90212 | 17.57935 | 26852 ft | 502 kts | 121° |
| 2026-04-22 15:50 | 40.88910 | 17.62303 | 27257 ft | 503 kts | 98° |
| 2026-04-22 15:50 | 40.88649 | 17.66892 | 27684 ft | 498 kts | 85° |
| 2026-04-22 15:50 | 40.88739 | 17.71505 | 27991 ft | 501 kts | 83° |
| 2026-04-22 15:51 | 40.88868 | 17.76155 | 28299 ft | 506 kts | 83° |
| 2026-04-22 15:51 | 40.88972 | 17.80824 | 28608 ft | 510 kts | 83° |
| 2026-04-22 15:51 | 40.89043 | 17.85513 | 28984 ft | 512 kts | 83° |
| 2026-04-22 15:51 | 40.89089 | 17.90202 | 29395 ft | 513 kts | 84° |
| 2026-04-22 15:52 | 40.89120 | 17.94920 | 29821 ft | 514 kts | 83° |
| 2026-04-22 15:52 | 40.89138 | 17.99657 | 30221 ft | 515 kts | 83° |
| 2026-04-22 15:52 | 40.89158 | 18.04351 | 30602 ft | 516 kts | 83° |
| 2026-04-22 15:52 | 40.89174 | 18.09078 | 30998 ft | 516 kts | 83° |
| 2026-04-22 15:53 | 40.89189 | 18.13814 | 31482 ft | 514 kts | 83° |
| 2026-04-22 15:53 | 40.89202 | 18.18489 | 31967 ft | 511 kts | 83° |
| 2026-04-22 15:53 | 40.89216 | 18.23102 | 32415 ft | 508 kts | 83° |
| 2026-04-22 15:53 | 40.89226 | 18.27760 | 32834 ft | 506 kts | 83° |
| 2026-04-22 15:54 | 40.89233 | 18.32403 | 33345 ft | 501 kts | 83° |
| 2026-04-22 15:54 | 40.89241 | 18.36977 | 33695 ft | 501 kts | 83° |
| 2026-04-22 15:54 | 40.89243 | 18.41554 | 34054 ft | 498 kts | 83° |
| 2026-04-22 15:54 | 40.89247 | 18.46063 | 34441 ft | 495 kts | 83° |
| 2026-04-22 15:55 | 40.89247 | 18.50637 | 34778 ft | 493 kts | 84° |
| 2026-04-22 15:55 | 40.89249 | 18.55105 | 35080 ft | 492 kts | 83° |
| 2026-04-22 15:55 | 40.89250 | 18.59620 | 35325 ft | 492 kts | 84° |
| 2026-04-22 15:55 | 40.89245 | 18.64144 | 35488 ft | 494 kts | 84° |
| 2026-04-22 15:56 | 40.89237 | 18.68695 | 35681 ft | 493 kts | 85° |
| 2026-04-22 15:56 | 40.89227 | 18.73203 | 35855 ft | 494 kts | 86° |
| 2026-04-22 15:56 | 40.89214 | 18.77731 | 36047 ft | 495 kts | 85° |
| 2026-04-22 15:56 | 40.89200 | 18.82215 | 36209 ft | 495 kts | 85° |
| 2026-04-22 15:57 | 40.89251 | 18.86743 | 36330 ft | 495 kts | 83° |
| 2026-04-22 15:57 | 40.89524 | 18.91285 | 36560 ft | 491 kts | 77° |
| 2026-04-22 15:57 | 40.90030 | 18.95677 | 36795 ft | 487 kts | 73° |
| 2026-04-22 15:57 | 40.90790 | 19.00040 | 36898 ft | 484 kts | 68° |
| 2026-04-22 15:58 | 40.92953 | 19.08399 | 37003 ft | 480 kts | 61° |
| 2026-04-22 15:58 | 40.95396 | 19.16555 | 36966 ft | 480 kts | 61° |
| 2026-04-22 15:59 | 40.97833 | 19.24778 | 36950 ft | 480 kts | 61° |
| 2026-04-22 15:59 | 41.00242 | 19.32997 | 36954 ft | 482 kts | 62° |
| 2026-04-22 16:00 | 41.02647 | 19.41265 | 36937 ft | 483 kts | 62° |
| 2026-04-22 16:00 | 41.05048 | 19.49559 | 36958 ft | 483 kts | 62° |
| 2026-04-22 16:01 | 41.07425 | 19.57804 | 36980 ft | 482 kts | 62° |
| 2026-04-22 16:01 | 41.09827 | 19.66144 | 36951 ft | 483 kts | 62° |
| 2026-04-22 16:02 | 41.12259 | 19.74575 | 36928 ft | 485 kts | 63° |
| 2026-04-22 16:02 | 41.14682 | 19.83011 | 36933 ft | 484 kts | 62° |
| 2026-04-22 16:03 | 41.17098 | 19.91472 | 36930 ft | 484 kts | 62° |
| 2026-04-22 16:03 | 41.19465 | 19.99789 | 36949 ft | 485 kts | 63° |
| 2026-04-22 16:04 | 41.21850 | 20.08222 | 36916 ft | 485 kts | 63° |
| 2026-04-22 16:04 | 41.24226 | 20.16645 | 36936 ft | 485 kts | 62° |
| 2026-04-22 16:05 | 41.26620 | 20.25146 | 36946 ft | 485 kts | 63° |
| 2026-04-22 16:05 | 41.28994 | 20.33616 | 36947 ft | 486 kts | 63° |
| 2026-04-22 16:06 | 41.31383 | 20.42170 | 36941 ft | 487 kts | 63° |
| 2026-04-22 16:06 | 41.33760 | 20.50718 | 37101 ft | 485 kts | 63° |
| 2026-04-22 16:07 | 41.34940 | 20.54969 | 36991 ft | 485 kts | 63° |
| 2026-04-22 16:07 | 41.36121 | 20.59236 | 36987 ft | 484 kts | 63° |
| 2026-04-22 16:07 | 41.38461 | 20.67701 | 36983 ft | 485 kts | 63° |
| 2026-04-22 16:08 | 41.40801 | 20.76204 | 36951 ft | 486 kts | 64° |
| 2026-04-22 16:08 | 41.43129 | 20.84713 | 36968 ft | 485 kts | 64° |
| 2026-04-22 16:09 | 41.45480 | 20.93319 | 36955 ft | 485 kts | 64° |
| 2026-04-22 16:09 | 41.47786 | 21.01769 | 36959 ft | 485 kts | 64° |
| 2026-04-22 16:10 | 41.50105 | 21.10293 | 36973 ft | 484 kts | 64° |
| 2026-04-22 16:10 | 41.52426 | 21.18872 | 36994 ft | 484 kts | 64° |
| 2026-04-22 16:11 | 41.54730 | 21.27395 | 36993 ft | 486 kts | 64° |
| 2026-04-22 16:11 | 41.57027 | 21.35929 | 36968 ft | 486 kts | 65° |
| 2026-04-22 16:12 | 41.59306 | 21.44443 | 36974 ft | 484 kts | 64° |
| 2026-04-22 16:12 | 41.61595 | 21.53003 | 36951 ft | 486 kts | 64° |
| 2026-04-22 16:13 | 41.63884 | 21.61604 | 36974 ft | 486 kts | 64° |
| 2026-04-22 16:13 | 41.66182 | 21.70280 | 36987 ft | 485 kts | 65° |
| 2026-04-22 16:14 | 41.68440 | 21.78854 | 36986 ft | 487 kts | 65° |
| 2026-04-22 16:14 | 41.70695 | 21.87426 | 36974 ft | 487 kts | 65° |
| 2026-04-22 16:15 | 41.72960 | 21.96063 | 37000 ft | 487 kts | 65° |
| 2026-04-22 16:15 | 41.75209 | 22.04663 | 36971 ft | 488 kts | 65° |
| 2026-04-22 16:16 | 41.77443 | 22.13228 | 36967 ft | 488 kts | 65° |
| 2026-04-22 16:16 | 41.79669 | 22.21800 | 36963 ft | 487 kts | 65° |
| 2026-04-22 16:17 | 41.81919 | 22.30495 | 36959 ft | 487 kts | 65° |
| 2026-04-22 16:17 | 41.84144 | 22.39123 | 36951 ft | 487 kts | 65° |
| 2026-04-22 16:18 | 41.86357 | 22.47748 | 36946 ft | 486 kts | 65° |
| 2026-04-22 16:18 | 41.88561 | 22.56355 | 36934 ft | 485 kts | 66° |
| 2026-04-22 16:19 | 41.90760 | 22.64978 | 36955 ft | 485 kts | 66° |
| 2026-04-22 16:19 | 41.92981 | 22.73759 | 36948 ft | 484 kts | 66° |
| 2026-04-22 16:20 | 41.95180 | 22.82460 | 36950 ft | 484 kts | 67° |
| 2026-04-22 16:20 | 41.97483 | 22.90954 | 36960 ft | 481 kts | 62° |
| 2026-04-22 16:21 | 42.00045 | 22.99253 | 36969 ft | 482 kts | 63° |
| 2026-04-22 16:21 | 42.02537 | 23.07644 | 36962 ft | 483 kts | 63° |
| 2026-04-22 16:22 | 42.06284 | 23.20269 | 36963 ft | 482 kts | 63° |
| 2026-04-22 16:23 | 42.09995 | 23.32776 | 36949 ft | 482 kts | 63° |
| 2026-04-22 16:23 | 42.12530 | 23.41269 | 36941 ft | 482 kts | 63° |
| 2026-04-22 16:24 | 42.16293 | 23.53970 | 36952 ft | 481 kts | 63° |
| 2026-04-22 16:25 | 42.18790 | 23.62475 | 36952 ft | 481 kts | 63° |
| 2026-04-22 16:25 | 42.22509 | 23.75239 | 36942 ft | 483 kts | 65° |
| 2026-04-22 16:26 | 42.24993 | 23.83816 | 36954 ft | 482 kts | 64° |
| 2026-04-22 16:26 | 42.27451 | 23.92306 | 36974 ft | 482 kts | 64° |
| 2026-04-22 16:27 | 42.29905 | 24.00806 | 36999 ft | 482 kts | 64° |
| 2026-04-22 16:27 | 42.32360 | 24.09337 | 37008 ft | 481 kts | 65° |
| 2026-04-22 16:28 | 42.34810 | 24.17878 | 37005 ft | 481 kts | 65° |
| 2026-04-22 16:28 | 42.37229 | 24.26344 | 37011 ft | 482 kts | 65° |
| 2026-04-22 16:29 | 42.39646 | 24.34831 | 37020 ft | 481 kts | 65° |
| 2026-04-22 16:29 | 42.42063 | 24.43337 | 37008 ft | 480 kts | 65° |
| 2026-04-22 16:30 | 42.44472 | 24.51847 | 37011 ft | 480 kts | 65° |
| 2026-04-22 16:30 | 42.46866 | 24.60341 | 37006 ft | 480 kts | 65° |
| 2026-04-22 16:31 | 42.49286 | 24.68954 | 37015 ft | 480 kts | 66° |
| 2026-04-22 16:31 | 42.51645 | 24.77412 | 37013 ft | 479 kts | 65° |
| 2026-04-22 16:32 | 42.53990 | 24.85829 | 37003 ft | 479 kts | 65° |
| 2026-04-22 16:32 | 42.56339 | 24.94273 | 36999 ft | 480 kts | 66° |
| 2026-04-22 16:33 | 42.58689 | 25.02752 | 36897 ft | 478 kts | 66° |
| 2026-04-22 16:33 | 42.59856 | 25.06970 | 36331 ft | 483 kts | 66° |
| 2026-04-22 16:33 | 42.61054 | 25.11295 | 35490 ft | 492 kts | 66° |
| 2026-04-22 16:34 | 42.62256 | 25.15650 | 34790 ft | 496 kts | 66° |
| 2026-04-22 16:34 | 42.63462 | 25.20037 | 34164 ft | 498 kts | 66° |
| 2026-04-22 16:34 | 42.64661 | 25.24404 | 33595 ft | 499 kts | 66° |
| 2026-04-22 16:34 | 42.65869 | 25.28820 | 33021 ft | 500 kts | 66° |
| 2026-04-22 16:35 | 42.67074 | 25.33232 | 32442 ft | 501 kts | 65° |
| 2026-04-22 16:35 | 42.68276 | 25.37637 | 31846 ft | 502 kts | 65° |
| 2026-04-22 16:35 | 42.69482 | 25.42062 | 31238 ft | 503 kts | 65° |
| 2026-04-22 16:35 | 42.70702 | 25.46537 | 30511 ft | 503 kts | 65° |
| 2026-04-22 16:36 | 42.71901 | 25.50950 | 29726 ft | 504 kts | 66° |
| 2026-04-22 16:36 | 42.73108 | 25.55395 | 28917 ft | 504 kts | 66° |
| 2026-04-22 16:36 | 42.74327 | 25.59889 | 28146 ft | 503 kts | 66° |
| 2026-04-22 16:36 | 42.75526 | 25.64325 | 27623 ft | 496 kts | 66° |
| 2026-04-22 16:37 | 42.76690 | 25.68650 | 27116 ft | 489 kts | 67° |
| 2026-04-22 16:37 | 42.77847 | 25.72975 | 26542 ft | 484 kts | 67° |
| 2026-04-22 16:37 | 42.78986 | 25.77231 | 25959 ft | 479 kts | 67° |
| 2026-04-22 16:37 | 42.80117 | 25.81463 | 25382 ft | 475 kts | 67° |
| 2026-04-22 16:38 | 42.81237 | 25.85653 | 24846 ft | 469 kts | 67° |
| 2026-04-22 16:38 | 42.82344 | 25.89795 | 24285 ft | 465 kts | 67° |
| 2026-04-22 16:38 | 42.83443 | 25.93913 | 23719 ft | 460 kts | 67° |
| 2026-04-22 16:38 | 42.84531 | 25.97994 | 23206 ft | 455 kts | 67° |
| 2026-04-22 16:39 | 42.85594 | 26.01989 | 22670 ft | 450 kts | 67° |
| 2026-04-22 16:39 | 42.86656 | 26.05985 | 22141 ft | 446 kts | 67° |
| 2026-04-22 16:39 | 42.87703 | 26.09931 | 21645 ft | 440 kts | 67° |
| 2026-04-22 16:39 | 42.88728 | 26.13806 | 21110 ft | 436 kts | 68° |
| 2026-04-22 16:40 | 42.89739 | 26.17628 | 20584 ft | 431 kts | 68° |
| 2026-04-22 16:40 | 42.90756 | 26.21482 | 20043 ft | 427 kts | 68° |
| 2026-04-22 16:40 | 42.92724 | 26.28957 | 19038 ft | 418 kts | 68° |
| 2026-04-22 16:41 | 42.93701 | 26.32678 | 18519 ft | 413 kts | 68° |
| 2026-04-22 16:41 | 42.94664 | 26.36352 | 18008 ft | 409 kts | 68° |
| 2026-04-22 16:41 | 42.95600 | 26.39927 | 17500 ft | 404 kts | 68° |
| 2026-04-22 16:41 | 42.96537 | 26.43518 | 16962 ft | 401 kts | 68° |
| 2026-04-22 16:42 | 42.97468 | 26.47089 | 16442 ft | 397 kts | 68° |
| 2026-04-22 16:42 | 42.98389 | 26.50624 | 15935 ft | 393 kts | 68° |
| 2026-04-22 16:42 | 42.99289 | 26.54085 | 15422 ft | 389 kts | 68° |
| 2026-04-22 16:42 | 43.00188 | 26.57540 | 14909 ft | 385 kts | 68° |
| 2026-04-22 16:43 | 43.01080 | 26.60976 | 14413 ft | 381 kts | 68° |
| 2026-04-22 16:43 | 43.01960 | 26.64373 | 13885 ft | 378 kts | 68° |
| 2026-04-22 16:43 | 43.02824 | 26.67720 | 13353 ft | 374 kts | 68° |
| 2026-04-22 16:43 | 43.03681 | 26.71044 | 12879 ft | 370 kts | 68° |
| 2026-04-22 16:44 | 43.04533 | 26.74350 | 12372 ft | 367 kts | 68° |
| 2026-04-22 16:44 | 43.05370 | 26.77614 | 11871 ft | 363 kts | 68° |
| 2026-04-22 16:44 | 43.06204 | 26.80861 | 11376 ft | 360 kts | 68° |
| 2026-04-22 16:44 | 43.07025 | 26.84059 | 10930 ft | 355 kts | 68° |
| 2026-04-22 16:45 | 43.07823 | 26.87172 | 10562 ft | 348 kts | 68° |
| 2026-04-22 16:45 | 43.08618 | 26.90275 | 10182 ft | 341 kts | 68° |
| 2026-04-22 16:45 | 43.09395 | 26.93308 | 9866 ft | 333 kts | 68° |
| 2026-04-22 16:45 | 43.10148 | 26.96254 | 9562 ft | 325 kts | 68° |
| 2026-04-22 16:46 | 43.10895 | 26.99135 | 9234 ft | 319 kts | 68° |
| 2026-04-22 16:46 | 43.11628 | 27.01957 | 8923 ft | 312 kts | 68° |
| 2026-04-22 16:46 | 43.12352 | 27.04759 | 8583 ft | 307 kts | 68° |
| 2026-04-22 16:46 | 43.13060 | 27.07515 | 8168 ft | 311 kts | 68° |
| 2026-04-22 16:47 | 43.13776 | 27.10314 | 7817 ft | 309 kts | 68° |
| 2026-04-22 16:47 | 43.14479 | 27.13077 | 7488 ft | 307 kts | 68° |
| 2026-04-22 16:47 | 43.14944 | 27.14904 | 7272 ft | 305 kts | 68° |
| 2026-04-22 16:47 | 43.15865 | 27.18536 | 6841 ft | 301 kts | 69° |
| 2026-04-22 16:48 | 43.16541 | 27.21206 | 6579 ft | 299 kts | 69° |
| 2026-04-22 16:48 | 43.17224 | 27.23913 | 6322 ft | 297 kts | 69° |
| 2026-04-22 16:48 | 43.17899 | 27.26583 | 6004 ft | 298 kts | 69° |
| 2026-04-22 16:48 | 43.18565 | 27.29233 | 5644 ft | 294 kts | 70° |
| 2026-04-22 16:49 | 43.19226 | 27.31852 | 5262 ft | 293 kts | 70° |
| 2026-04-22 16:49 | 43.19912 | 27.34574 | 4890 ft | 309 kts | 70° |
| 2026-04-22 16:49 | 43.20610 | 27.37355 | 4549 ft | 310 kts | 70° |
| 2026-04-22 16:49 | 43.21306 | 27.40136 | 4205 ft | 308 kts | 70° |
| 2026-04-22 16:50 | 43.22001 | 27.42920 | 3899 ft | 308 kts | 70° |
| 2026-04-22 16:50 | 43.22690 | 27.45682 | 3589 ft | 307 kts | 71° |
| 2026-04-22 16:50 | 43.23376 | 27.48429 | 3258 ft | 305 kts | 71° |
| 2026-04-22 16:50 | 43.24063 | 27.51189 | 2999 ft | 303 kts | 71° |
| 2026-04-22 16:51 | 43.24731 | 27.53871 | 2954 ft | 290 kts | 71° |
| 2026-04-22 16:51 | 43.25255 | 27.56420 | 2942 ft | 262 kts | 82° |
| 2026-04-22 16:51 | 43.25308 | 27.58761 | 2946 ft | 237 kts | 93° |
| 2026-04-22 16:51 | 43.25168 | 27.60909 | 2943 ft | 217 kts | 96° |
| 2026-04-22 16:52 | 43.24979 | 27.62935 | 2805 ft | 209 kts | 97° |
| 2026-04-22 16:52 | 43.24790 | 27.64879 | 2522 ft | 203 kts | 97° |
| 2026-04-22 16:52 | 43.24617 | 27.66724 | 2252 ft | 192 kts | 98° |
| 2026-04-22 16:52 | 43.24455 | 27.68502 | 2074 ft | 178 kts | 98° |
| 2026-04-22 16:53 | 43.24307 | 27.70140 | 1823 ft | 169 kts | 98° |
| 2026-04-22 16:53 | 43.24169 | 27.71669 | 1584 ft | 155 kts | 98° |
| 2026-04-22 16:53 | 43.24039 | 27.73104 | 1354 ft | 147 kts | 98° |
| 2026-04-22 16:53 | 43.23917 | 27.74465 | 1166 ft | 142 kts | 98° |
| 2026-04-22 16:54 | 43.23800 | 27.75767 | 961 ft | 134 kts | 99° |
| 2026-04-22 16:54 | 43.23687 | 27.77030 | 797 ft | 133 kts | 98° |
| 2026-04-22 16:54 | 43.23574 | 27.78290 | 624 ft | 133 kts | 99° |
| 2026-04-22 16:54 | 43.23461 | 27.79550 | 443 ft | 134 kts | 99° |
| 2026-04-22 16:55 | 43.23349 | 27.80810 | 266 ft | 133 kts | 97° |
| 2026-04-22 16:55 | 43.23244 | 27.81984 | 227 ft | 107 kts | 96° |
| 2026-04-22 16:55 | 43.23169 | 27.82832 | 239 ft | 75 kts | 98° |
| 2026-04-22 16:55 | 43.23175 | 27.83277 | 242 ft | 24 kts | 14° |
| 2026-04-22 16:56 | 43.23318 | 27.83308 | 245 ft | 16 kts | 8° |
| 2026-04-22 16:56 | 43.23383 | 27.83268 | 246 ft | 10 kts | 289° |
| 2026-04-22 16:56 | 43.23395 | 27.83167 | 246 ft | 11 kts | 282° |
| 2026-04-22 16:56 | 43.23406 | 27.83052 | 246 ft | 13 kts | 276° |
| 2026-04-22 16:57 | 43.23417 | 27.82916 | 243 ft | 15 kts | 276° |
| 2026-04-22 16:57 | 43.23426 | 27.82762 | 241 ft | 17 kts | 276° |
| 2026-04-22 16:57 | 43.23439 | 27.82602 | 239 ft | 7 kts | 277° |
| 2026-04-22 16:57 | 43.23471 | 27.82551 | 238 ft | 8 kts | 352° |
| 2026-04-22 16:58 | 43.23503 | 27.82554 | 239 ft | 4 kts | 8° |
| 2026-04-22 16:58 | 43.23513 | 27.82556 | 239 ft | 0 kts | 6° |